Portada
METAR-TAF:

METAR-TAF

Aeroports :

Puerto Maldonado, Perú

latitud: 12-38S, longitud: 069-12W, altitud: 265 m

Observació

L'informe es va fer fa 2 hores i 43 minuts, a les 19:00 UTC
Vent 3 kt del Sud, variant entre Sud/Sud-Est i Sud-Oest
Temperatura 27°C
Humitat 58%
Pressió 1014 hPa
Visibilitat 10 km o més
sense núvols per sota de 1500 mi sense presència de cumulonimbus.

METAR: SPTU 251900Z 19003KT 150V230 CAVOK 27/18 Q1014 RMK BIRD HAZARD RWY 01/19 PP000

Hora: 16:43 (21:43 UTC)

Pronòstic

L'informe es va fer fa 8 hores i 43 minuts, a les 13:00 UTC
Pronòstic vàlid del 25 a les 12 UTC al 26 a les 12 UTC
Vent 5 kt del Sud
Visibilitat 10 km o més
sense núvols per sota de 1500 mi sense presència de cumulonimbus.

TAF: SPTU 251300Z 2512/2612 18005KT CAVOK TX24/2519Z TN14/2611Z

Observacions i pronòstics meteorològics de més de 4000 aeroports (METAR i TAF).

Les estacions disponibles són els punts grocs i vermells al mapa.

Posi el ratolí al punt desitjat per veure el nom de l'estació.

Feu clic per veure les observacions i els pronòstics meteorològics.

Per canviar el mapa: feu clic els botons verds amb una creu de color negre per apropar; al botó verd amb un guió per allunyar la imatge; o en les fletxes verdes per a mapes adjacents.


METAR-TAF: